Thursday, November 15, 2018, 8:12 PM EST
Back to Local

KART, Watertown International Airport

Location: Dexter, NY, United States Lat: 43.983
Local Time: 8:12 PM EST ( 1:12 GMT) Lon: -76.033
Time Zone: US/Eastern Elev: 324 ft

Show me the last for .
Show Decoded

2018-11-15 19:35 METAR KART 160035Z AUTO 05005KT 1 3/4SM -SN OVC022 M02/M06 A3017 RMK AO2 SNB03
                 P0000 T10171061 =
2018-11-15 19:20 METAR KART 160020Z AUTO 05003KT 5SM -SN OVC024 M01/M07 A3019 RMK AO2 SNB03
                 PRESFR P0000 T10111072 =
2018-11-15 19:08 METAR KART 160008Z AUTO 00000KT 2 1/2SM -SN OVC028 M01/M08 A3020 RMK AO2 SNB03
                 P0000 T10111078 =
2018-11-15 18:56 METAR KART 152356Z AUTO 00000KT 10SM BKN038 OVC045 M01/M08 A3021 RMK AO2 SLP237
                 T10111078 10000 21011 56018 =
2018-11-15 17:56 METAR KART 152256Z AUTO 00000KT 10SM BKN050 OVC110 M01/M08 A3022 RMK AO2 SLP240
                 T10111078 =
2018-11-15 16:56 METAR KART 152156Z AUTO 34003KT 10SM CLR M01/M07 A3023 RMK AO2 SLP246 T10111072
                 =
2018-11-15 15:56 METAR KART 152056Z AUTO 00000KT 10SM CLR M01/M08 A3026 RMK AO2 SLP255 T10061083
                 58025 =
2018-11-15 14:56 METAR KART 151956Z AUTO 06003KT 10SM CLR 00/M10 A3029 RMK AO2 SLP266 T00001100 =
2018-11-15 13:56 METAR KART 151856Z AUTO 08005KT 10SM CLR M01/M10 A3031 RMK AO2 SLP273 T10061100
                 =
2018-11-15 12:56 METAR KART 151756Z AUTO 07007KT 10SM CLR M01/M09 A3034 RMK AO2 SLP280 60000
                 T10111094 11011 21083 58055 =
2018-11-15 11:56 METAR KART 151656Z AUTO 06004KT 10SM CLR M02/M11 A3039 RMK AO2 PRESFR SLP299
                 T10171111 =
2018-11-15 10:56 METAR KART 151556Z AUTO 09006KT 10SM CLR M02/M11 A3045 RMK AO2 SLP319 T10221106
                 =
2018-11-15 09:56 METAR KART 151456Z AUTO 13004KT 10SM CLR M03/M11 A3050 RMK AO2 SLP337 60000
                 T10331106 58007 =
2018-11-15 08:56 METAR KART 151356Z AUTO 07003KT 10SM CLR M06/M10 A3053 RMK AO2 SNB26E35 SLP347
                 P0000 T10611100 =
2018-11-15 07:56 METAR KART 151256Z AUTO 07004KT 10SM CLR M07/M11 A3054 RMK AO2 SLP352 T10721106
                 $ =
2018-11-15 06:56 METAR KART 151156Z AUTO 06005KT 10SM CLR M08/M11 A3052 RMK AO2 PRESFR SLP346
                 T10831106 11083 21089 56018 $ =
2018-11-15 05:56 METAR KART 151056Z AUTO 05006KT 10SM CLR M09/M11 A3053 RMK AO2 SLP349 T10891111
                 $ =
2018-11-15 04:56 METAR KART 150956Z AUTO 06005KT 10SM CLR M09/M12 A3056 RMK AO2 SLP357 T10891122
                 $ =
2018-11-15 03:56 METAR KART 150856Z AUTO 06005KT 10SM CLR M09/M13 A3058 RMK AO2 SLP363 T10891128
                 57007 $ =
2018-11-15 02:56 METAR KART 150756Z AUTO 07008KT 10SM CLR M08/M13 A3058 RMK AO2 SLP363 T10831133
                 $ =
2018-11-15 01:56 METAR KART 150656Z AUTO 06006KT 10SM CLR M08/M13 A3060 RMK AO2 SLP369 T10831128
                 $ =
2018-11-15 00:56 METAR KART 150556Z AUTO 07006KT 10SM CLR M09/M13 A3060 RMK AO2 SLP370 T10891133
                 11067 21100 50002 $ =
2018-11-14 23:56 METAR KART 150456Z AUTO 05006KT 10SM CLR M09/M13 A3060 RMK AO2 SLP371 T10891128
                 410171100 $ =
2018-11-14 22:56 METAR KART 150356Z AUTO 06011KT 10SM CLR M08/M13 A3060 RMK AO2 SLP371 T10831128
                 $ =
2018-11-14 21:56 METAR KART 150256Z AUTO 05010KT 10SM CLR M08/M12 A3059 RMK AO2 SLP367 T10781117
                 51008 $ =
2018-11-14 20:56 METAR KART 150156Z AUTO 06005KT 10SM CLR M09/M12 A3059 RMK AO2 SLP367 T10891122
                 $ =

Support USWX by starting your Amazon purchase here.